^^
Grace C. Lehan Memorial Weather Station Historical Data
Daily Summary for September 19, 2022 Units:  Metric    English   Both
Daily Weekly Monthly Yearly
  High: Low: Average:
Temperature: 28.7 °C 18.6 °C 22.5 °C
Dew Point: 21.2 °C 17.3 °C 18.9 °C
Humidity: 95% 58.9% 82%
Wind Speed: 9.3km/h 0km/h 0km/h
Wind Gust: 40.2km/h - -
Wind- - SW
Pressure: 1012.4 hPa 1007.3 hPa -
Precipitation: 5.59 mm    
 
 
Tabular Data for September 19, 2022
Time Temperature Dew Point Pressure Wind Wind Speed Wind Gust Humidity Rainfall Rate (Hourly) solar
00:00 21.7 °C 18.5 °C 1012.1 hPa Calm   1.6 km/h 82% 0 mm 0 W/m2
00:09 21.7 °C 18.4 °C 1012.1 hPa Calm     82% 0 mm 0 W/m2
00:14 21.6 °C 18.5 °C 1012.1 hPa Calm     82.6% 0 mm 0 W/m2
00:19 21.6 °C 18.6 °C 1012.1 hPa Calm     83% 0 mm 0 W/m2
00:24 21.5 °C 18.5 °C 1012.1 hPa Calm     83% 0 mm 0 W/m2
00:29 21.4 °C 18.4 °C 1012.1 hPa Calm     83% 0 mm 0 W/m2
00:34 21.4 °C 18.6 °C 1012.1 hPa Calm     83.8% 0 mm 0 W/m2
00:39 21.3 °C 18.5 °C 1012.1 hPa Calm     84% 0 mm 0 W/m2
00:44 21.2 °C 18.4 °C 1012.1 hPa Calm     84% 0 mm 0 W/m2
00:49 21.2 °C 18.3 °C 1012.1 hPa Calm     84.1% 0 mm 0 W/m2
00:54 21.1 °C 18.4 °C 1012.1 hPa Calm     85% 0 mm 0 W/m2
00:59 21 °C 18.4 °C 1012.1 hPa Calm     85% 0 mm 0 W/m2
01:04 20.9 °C 18.3 °C 1012.1 hPa Calm     85% 0 mm 0 W/m2
01:09 20.8 °C 18.2 °C 1012.1 hPa Calm     85% 0 mm 0 W/m2
01:14 20.8 °C 18.2 °C 1012.1 hPa Calm     85% 0 mm 0 W/m2
01:19 20.7 °C 18.2 °C 1011.7 hPa Calm     85.7% 0 mm 0 W/m2
01:24 20.7 °C 18.2 °C 1011.7 hPa Calm     86% 0 mm 0 W/m2
01:29 20.6 °C 18.2 °C 1011.7 hPa Calm     86% 0 mm 0 W/m2
01:34 20.5 °C 18.1 °C 1011.7 hPa Calm     86% 0 mm 0 W/m2
01:39 20.4 °C 18 °C 1012.1 hPa Calm     86.3% 0 mm 0 W/m2
01:44 20.3 °C 18.1 °C 1012.1 hPa Calm     87% 0 mm 0 W/m2
01:49 20.2 °C 18 °C 1012.1 hPa Calm     87% 0 mm 0 W/m2
01:54 20.2 °C 17.9 °C 1012.1 hPa Calm     87% 0 mm 0 W/m2
01:59 20.1 °C 17.9 °C 1012.1 hPa Calm     87.2% 0 mm 0 W/m2
02:04 20 °C 17.9 °C 1012.1 hPa Calm     87.9% 0 mm 0 W/m2
02:09 19.9 °C 17.9 °C 1012.1 hPa Calm     88% 0 mm 0 W/m2
02:14 19.9 °C 17.8 °C 1012.1 hPa Calm     88% 0 mm 0 W/m2
02:19 19.9 °C 17.8 °C 1012.1 hPa Calm     88% 0 mm 0 W/m2
02:24 19.8 °C 17.8 °C 1012.1 hPa Calm     88% 0 mm 0 W/m2
02:29 19.7 °C 17.7 °C 1012.1 hPa Calm     88% 0 mm 0 W/m2
02:34 19.6 °C 17.7 °C 1012.1 hPa Calm     88.5% 0 mm 0 W/m2
02:39 19.5 °C 17.7 °C 1012.1 hPa Calm     89% 0 mm 0 W/m2
02:44 19.4 °C 17.6 °C 1012.1 hPa Calm     89% 0 mm 0 W/m2
02:49 19.3 °C 17.5 °C 1012.1 hPa Calm     89% 0 mm 0 W/m2
02:54 19.3 °C 17.4 °C 1012.1 hPa Calm     89% 0 mm 0 W/m2
02:59 19.2 °C 17.4 °C 1012.1 hPa Calm     89% 0 mm 0 W/m2
03:03 19.2 °C 17.4 °C 1012.1 hPa Calm     89.6% 0 mm 0 W/m2
03:09 19.2 °C 17.6 °C 1012.1 hPa Calm     90% 0 mm 0 W/m2
03:14 19.2 °C 17.6 °C 1012.1 hPa Calm     90% 0 mm 0 W/m2
03:19 19.2 °C 17.5 °C 1012.1 hPa Calm     90% 0 mm 0 W/m2
03:24 19.2 °C 17.6 °C 1012.1 hPa Calm     90.5% 0 mm 0 W/m2
03:29 19.2 °C 17.7 °C 1012.1 hPa Calm     91% 0 mm 0 W/m2
03:34 19.1 °C 17.6 °C 1011.7 hPa Calm     91% 0 mm 0 W/m2
03:39 19.1 °C 17.6 °C 1011.7 hPa Calm     91% 0 mm 0 W/m2
03:44 19.1 °C 17.6 °C 1011.7 hPa Calm     91% 0 mm 0 W/m2
03:49 19.1 °C 17.6 °C 1011.7 hPa Calm     91% 0 mm 0 W/m2
03:54 19 °C 17.5 °C 1011.7 hPa Calm     91% 0 mm 0 W/m2
03:59 19 °C 17.5 °C 1011.7 hPa Calm     91% 0 mm 0 W/m2
04:00 18.9 °C 17.4 °C 1011.7 hPa Calm     91% 0 mm 0 W/m2
04:09 18.9 °C 17.4 °C 1011.7 hPa Calm     91% 0 mm 0 W/m2
04:14 18.9 °C 17.4 °C 1011.7 hPa Calm     91% 0 mm 0 W/m2
04:19 18.9 °C 17.4 °C 1011.7 hPa Calm     91% 0 mm 0 W/m2
04:24 18.8 °C 17.5 °C 1011.7 hPa Calm     92% 0 mm 0 W/m2
04:29 18.8 °C 17.5 °C 1011.7 hPa Calm     92% 0 mm 0 W/m2
04:34 18.8 °C 17.5 °C 1011.7 hPa Calm     92% 0 mm 0 W/m2
04:38 18.8 °C 17.5 °C 1011.7 hPa Calm     92% 0 mm 0 W/m2
04:44 18.8 °C 17.5 °C 1011.7 hPa Calm     92% 0 mm 0 W/m2
04:49 18.8 °C 17.5 °C 1011.7 hPa Calm     92% 0 mm 0 W/m2
04:54 18.8 °C 17.5 °C 1011.7 hPa Calm     92% 0 mm 0 W/m2
04:59 18.8 °C 17.5 °C 1011.7 hPa Calm     92% 0 mm 0 W/m2
05:04 18.8 °C 17.4 °C 1011.7 hPa Calm     92% 0 mm 0 W/m2
05:09 18.7 °C 17.4 °C 1011.7 hPa Calm     92% 0 mm 0 W/m2
05:14 18.7 °C 17.4 °C 1011.7 hPa Calm     92% 0 mm 0 W/m2
05:19 18.7 °C 17.4 °C 1011.7 hPa Calm     92% 0 mm 0 W/m2
05:24 18.7 °C 17.4 °C 1011.7 hPa Calm     92% 0 mm 0 W/m2
05:29 18.7 °C 17.4 °C 1011.7 hPa Calm     92% 0 mm 0 W/m2
05:34 18.7 °C 17.4 °C 1011.7 hPa Calm     92% 0 mm 0 W/m2
05:39 18.8 °C 17.5 °C 1011.7 hPa Calm     92.4% 0 mm 0 W/m2
05:44 18.8 °C 17.6 °C 1011.7 hPa Calm     93% 0 mm 0 W/m2
05:49 18.8 °C 17.6 °C 1011.7 hPa Calm     93% 0 mm 0 W/m2
05:54 18.8 °C 17.6 °C 1011.7 hPa Calm     93% 0 mm 0 W/m2
05:59 18.8 °C 17.6 °C 1011.7 hPa Calm     93% 0 mm 0 W/m2
06:04 18.8 °C 17.5 °C 1011.7 hPa Calm     92.4% 0 mm 0 W/m2
06:09 18.7 °C 17.4 °C 1011.7 hPa Calm     92% 0 mm 0 W/m2
06:14 18.7 °C 17.4 °C 1011.7 hPa Calm     92% 0 mm 0 W/m2
06:19 18.7 °C 17.3 °C 1011.7 hPa Calm     92% 0 mm 0 W/m2
06:24 18.7 °C 17.3 °C 1011.7 hPa Calm     92% 0 mm 0 W/m2
06:29 18.7 °C 17.3 °C 1011.7 hPa Calm     92% 0 mm 0 W/m2
06:34 18.6 °C 17.4 °C 1011.7 hPa Calm     92.4% 0 mm 0 W/m2
06:39 18.6 °C 17.5 °C 1011.7 hPa Calm     93% 0 mm 5 W/m2
06:44 18.7 °C 17.5 °C 1011.7 hPa Calm     93% 0 mm 7 W/m2
06:49 18.7 °C 17.5 °C 1011.7 hPa Calm     93% 0 mm 7 W/m2
06:54 18.7 °C 17.6 °C 1011.7 hPa Calm     93% 0 mm 7 W/m2
06:59 18.7 °C 17.6 °C 1011.7 hPa Calm     93% 0 mm 0 W/m2
07:04 18.8 °C 17.6 °C 1011.7 hPa Calm     93% 0 mm 0 W/m2
07:09 18.8 °C 17.7 °C 1012.1 hPa Calm     93% 0 mm 0 W/m2
07:14 18.8 °C 17.7 °C 1012.1 hPa Calm     93% 0 mm 5 W/m2
07:19 18.9 °C 17.7 °C 1012.1 hPa Calm     93% 0 mm 7 W/m2
07:24 18.9 °C 17.8 °C 1012.1 hPa Calm     93% 0 mm 9 W/m2
07:29 18.9 °C 17.8 °C 1012.1 hPa Calm     93% 0 mm 11 W/m2
07:34 19 °C 17.8 °C 1012.1 hPa Calm     93% 0 mm 11 W/m2
07:39 19.1 °C 17.9 °C 1012.1 hPa Calm     93% 0 mm 12 W/m2
07:44 19.1 °C 17.9 °C 1012.1 hPa Calm     93% 0 mm 14 W/m2
07:49 19.2 °C 18 °C 1012.1 hPa Calm     93% 0 mm 16 W/m2
07:54 19.2 °C 18.1 °C 1012.1 hPa Calm     93% 0 mm 21 W/m2
07:59 19.3 °C 18.2 °C 1012.1 hPa Calm     93% 0 mm 23 W/m2
08:00 19.3 °C 18.2 °C 1012.1 hPa Calm     93% 0 mm 21 W/m2
08:09 19.4 °C 18.3 °C 1012.1 hPa Calm     93% 0 mm 25 W/m2
08:14 19.5 °C 18.3 °C 1012.1 hPa Calm     93% 0 mm 26 W/m2
08:19 19.6 °C 18.4 °C 1012.1 hPa Calm     93% 0 mm 35 W/m2
08:24 19.6 °C 18.4 °C 1012.1 hPa Calm     93% 0 mm 44 W/m2
08:29 19.7 °C 18.5 °C 1012.1 hPa Calm     93% 0 mm 54 W/m2
08:34 19.7 °C 18.5 °C 1012.1 hPa Calm     92.4% 0 mm 60 W/m2
08:39 19.8 °C 18.4 °C 1012.1 hPa Calm     92% 0 mm 69 W/m2
08:44 19.9 °C 18.6 °C 1012.1 hPa Calm     92% 0 mm 81 W/m2
08:49 20 °C 18.7 °C 1012.1 hPa Calm     92% 0 mm 81 W/m2
08:54 20.1 °C 18.7 °C 1012.1 hPa Calm     91.6% 0 mm 72 W/m2
08:59 20.2 °C 18.6 °C 1012.1 hPa Calm     91% 0 mm 60 W/m2
09:04 20.2 °C 18.7 °C 1012.4 hPa Calm     90.8% 0 mm 60 W/m2
09:09 20.3 °C 18.6 °C 1012.4 hPa Calm     90% 0 mm 76 W/m2
09:14 20.3 °C 18.7 °C 1012.4 hPa Calm     90% 0 mm 116 W/m2
09:19 20.4 °C 18.7 °C 1012.4 hPa Calm     90% 0 mm 158 W/m2
09:24 20.6 °C 18.9 °C 1012.1 hPa Calm     90% 0 mm 172 W/m2
09:29 20.7 °C 19.1 °C 1012.1 hPa Calm     90% 0 mm 174 W/m2
09:34 20.9 °C 19.3 °C 1012.1 hPa Calm     90% 0 mm 229 W/m2
09:39 21.2 °C 19.3 °C 1012.1 hPa Calm     89.2% 0 mm 190 W/m2
09:44 21.4 °C 19.4 °C 1012.1 hPa Calm     88.5% 0 mm 204 W/m2
09:49 21.6 °C 19.6 °C 1012.1 hPa Calm     88% 0 mm 327 W/m2
09:54 21.9 °C 19.8 °C 1012.1 hPa Calm     87.6% 0 mm 677 W/m2
09:59 22.5 °C 20.3 °C 1012.1 hPa Calm     87.2% 0 mm 619 W/m2
10:04 23.1 °C 20.4 °C 1012.1 hPa Calm     84.8% 0 mm 341 W/m2
10:09 23.6 °C 20.1 °C 1012.1 hPa Calm     81% 0 mm 336 W/m2
10:14 23.9 °C 20.1 °C 1012.1 hPa Calm     79.6% 0 mm 304 W/m2
10:19 24.1 °C 20.2 °C 1012.1 hPa Calm     79.1% 0 mm 431 W/m2
10:24 24.4 °C 20.6 °C 1011.7 hPa Calm     79.1% 0 mm 431 W/m2
10:29 24.6 °C 20.3 °C 1011.7 hPa Calm     76.9% 0 mm 341 W/m2
10:34 24.8 °C 20.6 °C 1011.7 hPa Calm     77.4% 0 mm 401 W/m2
10:39 25.1 °C 20.7 °C 1011.7 hPa Calm     76.6% 0 mm 320 W/m2
10:44 25.3 °C 20.7 °C 1011.7 hPa Calm     75.9% 0 mm 341 W/m2
10:49 25.5 °C 20.8 °C 1011.7 hPa Calm     75% 0 mm 383 W/m2
10:54 25.7 °C 20.8 °C 1011.7 hPa Calm     74.4% 0 mm 860 W/m2
10:59 26.1 °C 20.8 °C 1011.7 hPa Calm     72.7% 0 mm 768 W/m2
11:04 26.3 °C 20.5 °C 1011.7 hPa Calm     70.4% 0 mm 250 W/m2
11:09 26.4 °C 20.8 °C 1011.4 hPa Calm     71.6% 0 mm 708 W/m2
11:14 26.6 °C 21.2 °C 1011.4 hPa Calm     72.3% 0 mm 694 W/m2
11:19 26.8 °C 20.6 °C 1011.1 hPa Calm     68.8% 0 mm 693 W/m2
11:24 26.9 °C 20.8 °C 1011.1 hPa Calm     69% 0 mm 698 W/m2
11:29 27.2 °C 20.9 °C 1011.1 hPa Calm     68.7% 0 mm 737 W/m2
11:34 27.3 °C 20.7 °C 1011.1 hPa Calm     67% 0 mm 682 W/m2
11:39 27.3 °C 20.7 °C 1011.1 hPa Calm     66.9% 0 mm 348 W/m2
11:44 27.2 °C 20.7 °C 1011.1 hPa Calm     67.6% 0 mm 399 W/m2
11:49 27.1 °C 20.7 °C 1011.1 hPa Calm     68.2% 0 mm 422 W/m2
11:54 26.9 °C 20.3 °C 1011.1 hPa Calm     67.3% 0 mm 343 W/m2
11:59 26.9 °C 20.7 °C 1011.1 hPa Calm     68.8% 0 mm 315 W/m2
12:00 26.8 °C 20.4 °C 1011.1 hPa Calm     68% 0 mm 315 W/m2
12:09 26.8 °C 20.4 °C 1011.1 hPa Calm     68.3% 0 mm 230 W/m2
12:14 26.7 °C 20.4 °C 1011.1 hPa Calm     68.5% 0 mm 227 W/m2
12:19 26.6 °C 20.3 °C 1011.1 hPa Calm     68.7% 0 mm 250 W/m2
12:24 26.5 °C 20.3 °C 1011.1 hPa Calm     69% 0 mm 279 W/m2
12:29 26.4 °C 20.2 °C 1010.7 hPa Calm     68.8% 0 mm 294 W/m2
12:34 26.4 °C 20.4 °C 1010.7 hPa Calm     69.6% 0 mm 355 W/m2
12:39 26.5 °C 20.8 °C 1010.7 hPa Calm     70.7% 0 mm 417 W/m2
12:44 26.8 °C 21.2 °C 1010.4 hPa Calm     71.4% 0 mm 415 W/m2
12:49 27.1 °C 20.9 °C 1010.4 hPa Calm     69.1% 0 mm 178 W/m2
12:54 27.3 °C 21 °C 1010.4 hPa Calm     68.5% 0 mm 162 W/m2
12:59 27.4 °C 20.9 °C 1010.4 hPa Calm     67.8% 0 mm 162 W/m2
13:04 27.5 °C 20.7 °C 1010.4 hPa Calm     66.7% 0 mm 267 W/m2
13:09 27.5 °C 20.8 °C 1010.4 hPa Calm     67.1% 0 mm 262 W/m2
13:14 27.5 °C 21 °C 1010 hPa Calm     67.6% 0 mm 274 W/m2
13:19 27.5 °C 20.9 °C 1010 hPa Calm     67.4% 0 mm 274 W/m2
13:24 27.6 °C 20.8 °C 1010 hPa Calm     66.5% 0 mm 269 W/m2
13:29 27.7 °C 20.6 °C 1010 hPa Calm     65.5% 0 mm 248 W/m2
13:34 27.7 °C 20.7 °C 1010 hPa Calm     65.7% 0 mm 234 W/m2
13:39 27.7 °C 20.7 °C 1010 hPa Calm     65.9% 0 mm 287 W/m2
13:44 27.6 °C 20.7 °C 1010 hPa Calm     66% 0 mm 288 W/m2
13:49 27.6 °C 20.8 °C 1009.7 hPa SW 0.2 km/h 3.2 km/h 66.5% 0 mm 302 W/m2
13:54 27.7 °C 20.8 °C 1009.7 hPa Calm   3.2 km/h 66.3% 0 mm 343 W/m2
13:59 27.8 °C 20.9 °C 1009.7 hPa Calm   3.2 km/h 66.3% 0 mm 330 W/m2
14:04 28 °C 21.2 °C 1009.4 hPa Calm   3.2 km/h 66.8% 0 mm 299 W/m2
14:09 28.1 °C 20.7 °C 1009.4 hPa Calm   1.6 km/h 64% 0 mm 301 W/m2
14:14 28.3 °C 20.8 °C 1009.4 hPa SSW 0.3 km/h 6.4 km/h 63.8% 0 mm 267 W/m2
14:19 28.4 °C 20.4 °C 1009 hPa SSE 0.3 km/h 6.4 km/h 62.2% 0 mm 251 W/m2
14:24 28.4 °C 20.4 °C 1009 hPa West 0.2 km/h 6.4 km/h 61.8% 0 mm 265 W/m2
14:29 28.5 °C 20.3 °C 1009 hPa SSW 0.2 km/h 6.4 km/h 61.1% 0 mm 278 W/m2
14:34 28.6 °C 20.6 °C 1009 hPa Calm   6.4 km/h 62% 0 mm 281 W/m2
14:39 28.6 °C 20.6 °C 1009 hPa SW 0.2 km/h 3.2 km/h 61.8% 0 mm 292 W/m2
14:44 28.7 °C 20.5 °C 1008.7 hPa WSW 0.2 km/h 3.2 km/h 61.2% 0 mm 279 W/m2
14:49 28.7 °C 20.2 °C 1008.7 hPa Calm   3.2 km/h 60% 0 mm 239 W/m2
14:54 28.6 °C 20.3 °C 1008.7 hPa SSW 0.2 km/h 3.2 km/h 60.8% 0 mm 316 W/m2
14:59 28.6 °C 20.4 °C 1008.7 hPa SSW 0.2 km/h 3.2 km/h 61.4% 0 mm 318 W/m2
15:04 28.6 °C 20.1 °C 1008.7 hPa WSW 0.2 km/h 3.2 km/h 60.2% 0 mm 297 W/m2
15:09 28.6 °C 20.2 °C 1008.4 hPa WNW 0.2 km/h 3.2 km/h 60.4% 0 mm 167 W/m2
15:14 28.6 °C 20.3 °C 1008.4 hPa Calm   3.2 km/h 61.2% 0 mm 202 W/m2
15:19 28.5 °C 20.3 °C 1008.4 hPa SSW 0.2 km/h 3.2 km/h 61% 0 mm 202 W/m2
15:24 28.4 °C 20.2 °C 1008.4 hPa SW 0.2 km/h 3.2 km/h 61.2% 0 mm 176 W/m2
15:29 28.3 °C 20.2 °C 1008 hPa Calm   3.2 km/h 61.6% 0 mm 176 W/m2
15:34 28.2 °C 20.2 °C 1008 hPa SSW 0.2 km/h 3.2 km/h 61.7% 0 mm 199 W/m2
15:39 28.2 °C 20.4 °C 1008 hPa Calm   3.2 km/h 62.6% 0 mm 285 W/m2
15:44 28.2 °C 20.2 °C 1008 hPa Calm   3.2 km/h 62.1% 0 mm 251 W/m2
15:49 28.2 °C 19.8 °C 1007.7 hPa SSW 0.2 km/h 3.2 km/h 60.5% 0 mm 229 W/m2
15:54 28.2 °C 20 °C 1007.7 hPa SSW 0.2 km/h 3.2 km/h 61% 0 mm 246 W/m2
15:59 28.3 °C 20.2 °C 1007.7 hPa SW 0.2 km/h 3.2 km/h 61.3% 0 mm 218 W/m2
16:00 28.4 °C 20.4 °C 1007.7 hPa Calm   3.2 km/h 62% 0 mm 186 W/m2
16:09 28.6 °C 20.1 °C 1007.7 hPa Calm   1.6 km/h 60.2% 0 mm 132 W/m2
16:14 28.7 °C 20.2 °C 1007.7 hPa SW 0.2 km/h 4.8 km/h 60.2% 0 mm 148 W/m2
16:19 28.7 °C 19.9 °C 1007.7 hPa SW 0.6 km/h 4.8 km/h 59.1% 0 mm 127 W/m2
16:24 28.6 °C 20 °C 1007.7 hPa SW 0.5 km/h 8 km/h 59.7% 0 mm 74 W/m2
16:29 28.4 °C 19.7 °C 1007.7 hPa SW 0.2 km/h 8 km/h 59.2% 0 mm 79 W/m2
16:34 28.2 °C 19.4 °C 1007.3 hPa SW 0.3 km/h 8 km/h 58.9% 0 mm 107 W/m2
16:39 28.1 °C 19.6 °C 1007.7 hPa WSW 0.6 km/h 11.3 km/h 59.8% 0 mm 153 W/m2
16:44 28 °C 19.5 °C 1007.7 hPa SW 0.5 km/h 11.3 km/h 60% 0 mm 174 W/m2
16:49 28 °C 19.6 °C 1007.7 hPa Calm   11.3 km/h 60.3% 0 mm 172 W/m2
16:54 27.9 °C 19.4 °C 1007.7 hPa SSW 0.2 km/h 11.3 km/h 59.8% 0 mm 118 W/m2
16:59 27.8 °C 19.3 °C 1007.7 hPa WSW 0.2 km/h 11.3 km/h 60% 0 mm 102 W/m2
17:04 27.6 °C 19.4 °C 1007.7 hPa Calm   11.3 km/h 61% 0 mm 88 W/m2
17:09 27.4 °C 19.5 °C 1007.7 hPa Calm   1.6 km/h 62% 0 mm 67 W/m2
17:14 27.3 °C 19.6 °C 1007.7 hPa Calm   1.6 km/h 62.8% 0 mm 39 W/m2
17:19 27.2 °C 19.6 °C 1007.7 hPa Calm   1.6 km/h 63.4% 0 mm 49 W/m2
17:24 27.1 °C 19.7 °C 1007.7 hPa SW 0.2 km/h 4.8 km/h 64.2% 0 mm 62 W/m2
17:29 26.9 °C 19.8 °C 1007.7 hPa Calm   4.8 km/h 65% 0 mm 63 W/m2
17:34 26.9 °C 19.9 °C 1007.7 hPa Calm   4.8 km/h 65.8% 0 mm 58 W/m2
17:39 26.8 °C 19.9 °C 1007.7 hPa WSW 0.2 km/h 11.3 km/h 66% 0 mm 49 W/m2
17:44 26.7 °C 19.8 °C 1007.7 hPa Calm   11.3 km/h 66% 0 mm 49 W/m2
17:49 26.6 °C 19.9 °C 1007.3 hPa Calm   11.3 km/h 66.8% 0 mm 49 W/m2
17:54 26.5 °C 20 °C 1007.3 hPa Calm   11.3 km/h 67.5% 0 mm 37 W/m2
17:59 26.4 °C 20.1 °C 1007.3 hPa Calm   11.3 km/h 68% 0 mm 32 W/m2
18:04 26.3 °C 19.9 °C 1007.3 hPa Calm   11.3 km/h 68% 0 mm 32 W/m2
18:09 26.3 °C 20.1 °C 1007.3 hPa Calm   1.6 km/h 68.8% 0 mm 28 W/m2
18:14 26.2 °C 20.1 °C 1007.3 hPa Calm   1.6 km/h 69% 0 mm 28 W/m2
18:19 26.2 °C 20 °C 1007.3 hPa SW 0.2 km/h 4.8 km/h 69% 0 mm 19 W/m2
18:24 26.1 °C 20.1 °C 1007.3 hPa Calm   4.8 km/h 69.5% 0 mm 5 W/m2
18:29 26 °C 20.1 °C 1007.3 hPa Calm   4.8 km/h 70% 0 mm 7 W/m2
18:34 25.9 °C 20 °C 1007.3 hPa Calm   4.8 km/h 70% 0 mm 5 W/m2
18:39 25.8 °C 20.1 °C 1007.3 hPa Calm   1.6 km/h 70.5% 0 mm 0 W/m2
18:44 25.7 °C 20.1 °C 1007.3 hPa Calm   1.6 km/h 71% 0 mm 0 W/m2
18:49 25.7 °C 20.2 °C 1008 hPa SSW 1.6 km/h 19.3 km/h 71.6% 0.25 mm 0 W/m2
18:54 25.3 °C 20.7 °C 1008.4 hPa WSW 9.3 km/h 40.2 km/h 75.6% 3.3 mm 0 W/m2
18:59 23.9 °C 19.7 °C 1008.4 hPa WSW 2.9 km/h 40.2 km/h 77.1% 4.83 mm 0 W/m2
19:04 22.8 °C 19.3 °C 1008.4 hPa WSW 0.6 km/h 40.2 km/h 80.7% 5.08 mm 0 W/m2
19:09 22.1 °C 19.1 °C 1008.4 hPa WSW 0.2 km/h 11.3 km/h 83.2% 5.33 mm 0 W/m2
19:14 21.6 °C 19.1 °C 1008 hPa Calm   11.3 km/h 85.2% 5.33 mm 0 W/m2
19:19 21.3 °C 19 °C 1008 hPa Calm   11.3 km/h 86.6% 5.33 mm 0 W/m2
19:24 21.1 °C 18.9 °C 1008 hPa Calm   11.3 km/h 87.4% 5.33 mm 0 W/m2
19:29 20.8 °C 18.9 °C 1008.7 hPa Calm   11.3 km/h 88.6% 5.33 mm 0 W/m2
19:34 20.7 °C 19 °C 1008.7 hPa Calm   11.3 km/h 89.6% 5.33 mm 0 W/m2
19:39 20.7 °C 19 °C 1008.7 hPa Calm     90.2% 5.33 mm 0 W/m2
19:44 20.5 °C 19 °C 1008.7 hPa Calm     91% 5.33 mm 0 W/m2
19:47 20.4 °C 18.9 °C 1008.7 hPa Calm     91% 5.33 mm 0 W/m2
20:09 19.9 °C 18.6 °C 1008.7 hPa Calm     92% 5.33 mm 0 W/m2
20:14 19.8 °C 18.5 °C 1008.7 hPa Calm     92% 5.33 mm 0 W/m2
20:18 19.8 °C 18.4 °C 1009 hPa Calm     92% 5.33 mm 0 W/m2
20:24 19.8 °C 18.6 °C 1009 hPa Calm     92.8% 5.33 mm 0 W/m2
20:29 19.8 °C 18.6 °C 1009.4 hPa Calm     93% 5.33 mm 0 W/m2
20:34 19.8 °C 18.6 °C 1009.4 hPa Calm     93% 5.33 mm 0 W/m2
20:39 19.8 °C 18.6 °C 1009.4 hPa Calm     93% 0 mm 0 W/m2
20:44 19.8 °C 18.6 °C 1009.4 hPa Calm     93% 0 mm 0 W/m2
20:49 19.8 °C 18.6 °C 1009.4 hPa Calm     93% 0 mm 0 W/m2
20:54 19.8 °C 18.8 °C 1009 hPa Calm     93.9% 0 mm 0 W/m2
20:59 19.7 °C 18.7 °C 1009.4 hPa Calm     94% 0 mm 0 W/m2
21:04 19.7 °C 18.7 °C 1009.4 hPa Calm     94% 0 mm 0 W/m2
21:09 19.7 °C 18.7 °C 1009.4 hPa Calm     94% 0 mm 0 W/m2
21:14 19.7 °C 18.7 °C 1009 hPa Calm     94% 0 mm 0 W/m2
21:19 19.6 °C 18.6 °C 1009 hPa Calm     94% 0 mm 0 W/m2
21:24 19.6 °C 18.6 °C 1009 hPa Calm     94% 0 mm 0 W/m2
21:29 19.5 °C 18.5 °C 1009 hPa Calm     94% 0 mm 0 W/m2
21:34 19.4 °C 18.4 °C 1009 hPa Calm     94% 0 mm 0 W/m2
21:39 19.4 °C 18.4 °C 1009 hPa Calm     94% 0 mm 0 W/m2
21:44 19.3 °C 18.3 °C 1009 hPa Calm     94% 0 mm 0 W/m2
21:49 19.3 °C 18.3 °C 1009 hPa Calm     94% 0 mm 0 W/m2
21:54 19.3 °C 18.3 °C 1009 hPa Calm     94% 0 mm 0 W/m2
21:59 19.3 °C 18.4 °C 1009 hPa Calm   1.6 km/h 94.6% 0 mm 0 W/m2
22:04 19.3 °C 18.3 °C 1009 hPa Calm   1.6 km/h 94.1% 0 mm 0 W/m2
22:09 19.3 °C 18.3 °C 1009 hPa Calm     94% 0 mm 0 W/m2
22:14 19.2 °C 18.2 °C 1009 hPa Calm     94% 0 mm 0 W/m2
22:19 19.2 °C 18.2 °C 1009 hPa Calm     94% 0 mm 0 W/m2
22:24 19.2 °C 18.3 °C 1009 hPa Calm     94.8% 0 mm 0 W/m2
22:29 19.2 °C 18.3 °C 1009 hPa Calm     95% 0.25 mm 0 W/m2
22:34 19.2 °C 18.3 °C 1009 hPa Calm     95% 0.25 mm 0 W/m2
22:39 19.1 °C 18.3 °C 1009 hPa Calm     95% 0.25 mm 0 W/m2
22:44 19.1 °C 18.3 °C 1009 hPa Calm     95% 0.25 mm 0 W/m2
22:49 19.1 °C 18.2 °C 1009 hPa Calm     95% 0.25 mm 0 W/m2
22:54 19.1 °C 18.2 °C 1009 hPa Calm     95% 0.25 mm 0 W/m2
22:59 19.1 °C 18.2 °C 1009 hPa Calm     95% 0.25 mm 0 W/m2
23:04 19.1 °C 18.2 °C 1009 hPa Calm     95% 0.25 mm 0 W/m2
23:09 19.1 °C 18.2 °C 1009 hPa Calm     95% 0.25 mm 0 W/m2
23:14 19.1 °C 18.2 °C 1009 hPa Calm     95% 0.25 mm 0 W/m2
23:19 19 °C 18.2 °C 1009 hPa Calm     95% 0.25 mm 0 W/m2
23:24 19.1 °C 18.2 °C 1009 hPa Calm     95% 0.25 mm 0 W/m2
23:29 19 °C 18.2 °C 1009 hPa Calm     95% 0.25 mm 0 W/m2
23:34 19 °C 18.2 °C 1008.7 hPa Calm     95% 0.25 mm 0 W/m2
23:39 19 °C 18.2 °C 1008.7 hPa Calm     95% 0 mm 0 W/m2
23:44 19 °C 18.2 °C 1008.7 hPa Calm     95% 0 mm 0 W/m2
23:49 18.9 °C 18.2 °C 1008.7 hPa Calm     95% 0 mm 0 W/m2
23:54 18.9 °C 18.1 °C 1008.7 hPa Calm     95% 0 mm 0 W/m2
23:59 18.9 °C 18.1 °C 1008.7 hPa Calm     95% 0 mm 0 W/m2
Hartford County Weather
Compliments of Weather Underground - 4 mb